createdAt,value
2019-03-26T00:00:31.626Z,4.30
2019-03-26T00:03:01.367Z,4.30
2019-03-26T00:05:31.198Z,4.30
2019-03-26T00:08:01.268Z,4.30
2019-03-26T00:10:32.288Z,4.20
2019-03-26T00:13:02.428Z,4.30
2019-03-26T00:15:32.107Z,4.30
2019-03-26T00:18:01.761Z,4.20
2019-03-26T00:20:31.422Z,4.30
2019-03-26T00:23:01.214Z,4.20
2019-03-26T00:25:31.271Z,4.20
2019-03-26T00:28:01.023Z,4.20
2019-03-26T00:30:30.696Z,4.20
2019-03-26T00:33:00.387Z,4.20
2019-03-26T00:35:30.083Z,4.20
2019-03-26T00:37:59.843Z,4.20
2019-03-26T00:40:29.511Z,4.20
2019-03-26T00:42:59.518Z,4.30
2019-03-26T00:45:29.184Z,4.30
2019-03-26T00:47:59.283Z,4.30
2019-03-26T00:50:29.297Z,4.30
2019-03-26T00:52:58.993Z,4.30
2019-03-26T00:55:28.663Z,4.30
2019-03-26T00:58:01.538Z,4.40
2019-03-26T01:00:36.456Z,4.40
2019-03-26T01:03:06.283Z,4.40
2019-03-26T01:05:36.380Z,4.40
2019-03-26T01:08:06.155Z,4.40
2019-03-26T01:10:36.286Z,4.50
2019-03-26T01:13:06.326Z,4.40
2019-03-26T01:15:36.075Z,4.50
2019-03-26T01:18:05.842Z,4.50
2019-03-26T01:20:35.570Z,4.50
2019-03-26T01:23:05.248Z,4.50
2019-03-26T01:25:34.930Z,4.50
2019-03-26T01:28:04.860Z,4.50
2019-03-26T01:30:34.541Z,4.50
2019-03-26T01:33:04.290Z,4.60
2019-03-26T01:35:34.332Z,4.60
2019-03-26T01:38:05.011Z,4.60
2019-03-26T01:40:34.715Z,4.60
2019-03-26T01:43:04.432Z,4.60
2019-03-26T01:45:34.100Z,4.60
2019-03-26T01:48:03.775Z,4.70
2019-03-26T01:50:33.511Z,4.70
2019-03-26T01:53:03.170Z,4.70
2019-03-26T01:55:33.231Z,4.70
2019-03-26T01:58:02.885Z,4.70
2019-03-26T02:00:32.564Z,4.70
2019-03-26T02:03:02.219Z,4.70
2019-03-26T02:05:32.221Z,4.70
2019-03-26T02:08:02.944Z,4.70
2019-03-26T02:10:32.960Z,4.80
2019-03-26T02:13:02.999Z,4.80
2019-03-26T02:15:33.091Z,4.80
2019-03-26T02:18:02.744Z,4.80
2019-03-26T02:20:32.728Z,4.80
2019-03-26T02:23:02.388Z,4.80
2019-03-26T02:25:32.476Z,4.80
2019-03-26T02:28:02.219Z,4.80
2019-03-26T02:30:32.165Z,4.70
2019-03-26T02:33:01.832Z,4.70
2019-03-26T02:35:31.722Z,4.70
2019-03-26T02:38:01.924Z,4.70
2019-03-26T02:40:31.581Z,4.70
2019-03-26T02:43:01.327Z,4.60
2019-03-26T02:45:31.053Z,4.70
2019-03-26T02:48:00.808Z,4.60
2019-03-26T02:50:30.542Z,4.60
2019-03-26T02:53:00.195Z,4.60
2019-03-26T02:55:29.864Z,4.60
2019-03-26T02:57:59.586Z,4.60
2019-03-26T03:00:29.631Z,4.60
2019-03-26T03:02:59.744Z,4.60
2019-03-26T03:05:35.731Z,4.60
2019-03-26T03:08:00.776Z,4.60
2019-03-26T03:10:30.533Z,4.60
2019-03-26T03:13:00.253Z,4.60
2019-03-26T03:15:29.938Z,4.60
2019-03-26T03:17:59.671Z,4.60
2019-03-26T03:20:29.419Z,4.60
2019-03-26T03:22:59.239Z,4.60
2019-03-26T03:25:29.178Z,4.60
2019-03-26T03:27:58.905Z,4.60
2019-03-26T03:30:28.580Z,4.60
2019-03-26T03:33:00.038Z,4.60
2019-03-26T03:35:29.886Z,4.60
2019-03-26T03:37:59.788Z,4.60
2019-03-26T03:40:29.455Z,4.70
2019-03-26T03:42:59.553Z,4.70
2019-03-26T03:45:29.350Z,4.70
2019-03-26T03:47:59.102Z,4.70
2019-03-26T03:50:29.708Z,4.70
2019-03-26T03:52:59.771Z,4.70
2019-03-26T03:55:30.492Z,4.70
2019-03-26T03:58:00.253Z,4.80
2019-03-26T04:00:34.697Z,4.80
2019-03-26T04:03:05.514Z,4.80
2019-03-26T04:05:35.552Z,4.70
2019-03-26T04:08:05.220Z,4.70
2019-03-26T04:10:35.268Z,4.70
2019-03-26T04:13:05.002Z,4.70
2019-03-26T04:15:35.407Z,4.70
2019-03-26T04:18:05.224Z,4.70
2019-03-26T04:20:34.993Z,4.70
2019-03-26T04:23:04.707Z,4.70
2019-03-26T04:25:34.435Z,4.70
2019-03-26T04:28:04.176Z,4.70
2019-03-26T04:30:33.910Z,4.70
2019-03-26T04:33:04.744Z,4.80
2019-03-26T04:35:34.831Z,4.80
2019-03-26T04:38:04.834Z,4.80
2019-03-26T04:40:40.208Z,4.80
2019-03-26T04:43:09.866Z,4.80
2019-03-26T04:45:39.510Z,4.90
2019-03-26T04:48:09.179Z,4.90
2019-03-26T04:50:38.874Z,4.90
2019-03-26T04:53:08.820Z,5.00
2019-03-26T04:55:38.537Z,5.00
2019-03-26T04:58:08.350Z,5.00
2019-03-26T05:00:37.984Z,5.00
2019-03-26T05:03:07.914Z,5.00
2019-03-26T05:05:37.542Z,5.00
2019-03-26T05:08:07.188Z,5.10
2019-03-26T05:10:37.003Z,5.10
2019-03-26T05:13:06.657Z,5.10
2019-03-26T05:15:36.310Z,5.10
2019-03-26T05:18:05.957Z,5.10
2019-03-26T05:20:35.843Z,5.10
2019-03-26T05:23:05.487Z,5.10
2019-03-26T05:25:35.127Z,5.10
2019-03-26T05:28:05.046Z,5.10
2019-03-26T05:30:34.675Z,5.10
2019-03-26T05:33:04.325Z,5.10
2019-03-26T05:35:33.955Z,5.10
2019-03-26T05:38:05.152Z,5.10
2019-03-26T05:40:34.781Z,5.10
2019-03-26T05:43:04.693Z,5.10
2019-03-26T05:45:34.323Z,5.10
2019-03-26T05:48:04.228Z,5.10
2019-03-26T05:50:33.857Z,5.20
2019-03-26T05:53:03.788Z,5.20
2019-03-26T05:55:33.773Z,5.20
2019-03-26T05:58:03.791Z,5.20
2019-03-26T06:00:33.500Z,5.20
2019-03-26T06:03:03.160Z,5.20
2019-03-26T06:05:33.097Z,5.20
2019-03-26T06:08:05.215Z,5.30
2019-03-26T06:10:34.862Z,5.30
2019-03-26T06:13:04.527Z,5.30
2019-03-26T06:15:34.259Z,5.30
2019-03-26T06:18:03.935Z,5.30
2019-03-26T06:20:33.590Z,5.50
2019-03-26T06:23:03.569Z,5.50
2019-03-26T06:25:33.296Z,5.50
2019-03-26T06:28:02.966Z,5.50
2019-03-26T06:30:32.616Z,5.50
2019-03-26T06:33:02.607Z,5.50
2019-03-26T06:35:32.284Z,5.70
2019-03-26T06:38:02.261Z,5.80
2019-03-26T06:40:32.174Z,5.80
2019-03-26T06:43:01.851Z,5.80
2019-03-26T06:45:31.863Z,5.80
2019-03-26T06:48:04.209Z,5.80
2019-03-26T06:50:34.098Z,5.70
2019-03-26T06:53:03.720Z,5.80
2019-03-26T06:55:33.397Z,5.80
2019-03-26T06:58:03.320Z,5.90
2019-03-26T07:00:33.811Z,5.90
2019-03-26T07:03:04.677Z,6.00
2019-03-26T07:05:34.655Z,6.00
2019-03-26T07:08:04.304Z,6.10
2019-03-26T07:10:33.933Z,6.50
2019-03-26T07:13:03.816Z,6.40
2019-03-26T07:15:33.443Z,6.40
2019-03-26T07:18:03.438Z,6.40
2019-03-26T07:20:33.054Z,6.40
2019-03-26T07:23:02.681Z,6.40
2019-03-26T07:25:32.313Z,6.40
2019-03-26T07:28:01.985Z,6.50
2019-03-26T07:30:42.184Z,6.50
2019-03-26T07:33:12.062Z,6.50
2019-03-26T07:35:41.689Z,6.50
2019-03-26T07:38:11.326Z,6.60
2019-03-26T07:40:40.948Z,6.60
2019-03-26T07:43:10.585Z,6.60
2019-03-26T07:45:41.190Z,6.60
2019-03-26T07:48:11.117Z,6.70
2019-03-26T07:50:40.750Z,6.80
2019-03-26T07:53:10.754Z,6.80
2019-03-26T07:55:42.556Z,6.90
2019-03-26T07:58:11.729Z,7.00
2019-03-26T08:00:41.372Z,7.00
2019-03-26T08:03:11.347Z,7.00
2019-03-26T08:05:41.352Z,7.00
2019-03-26T08:08:11.366Z,7.10
2019-03-26T08:10:41.006Z,7.20
2019-03-26T08:13:10.663Z,7.20
2019-03-26T08:15:40.717Z,7.30
2019-03-26T08:18:11.752Z,7.30
2019-03-26T08:20:41.381Z,7.40
2019-03-26T08:23:11.106Z,7.30
2019-03-26T08:25:40.738Z,7.30
2019-03-26T08:28:10.628Z,7.30
2019-03-26T08:30:40.294Z,7.30
2019-03-26T08:33:10.001Z,7.40
2019-03-26T08:35:39.639Z,7.40
2019-03-26T08:38:13.088Z,7.40
2019-03-26T08:40:41.191Z,7.50
2019-03-26T08:43:10.818Z,7.60
2019-03-26T08:45:40.468Z,7.60
2019-03-26T08:48:10.092Z,7.70
2019-03-26T08:50:39.756Z,7.80
2019-03-26T08:53:09.373Z,7.80
2019-03-26T08:55:39.035Z,8.00
2019-03-26T08:58:08.966Z,8.00
2019-03-26T09:00:38.605Z,8.00
2019-03-26T09:03:08.235Z,7.90
2019-03-26T09:05:38.196Z,7.90
2019-03-26T09:08:07.926Z,8.00
2019-03-26T09:10:50.902Z,8.00
2019-03-26T09:13:08.915Z,8.10
2019-03-26T09:15:38.818Z,8.10
2019-03-26T09:18:08.458Z,8.10
2019-03-26T09:20:38.092Z,8.30
2019-03-26T09:23:07.810Z,8.40
2019-03-26T09:25:37.730Z,8.40
2019-03-26T09:28:07.383Z,8.40
2019-03-26T09:30:37.001Z,8.30
2019-03-26T09:33:06.972Z,8.20
2019-03-26T09:35:36.891Z,8.10
2019-03-26T09:38:06.606Z,7.90
2019-03-26T09:40:36.613Z,7.80
2019-03-26T09:43:06.267Z,7.70
2019-03-26T09:45:35.896Z,7.70
2019-03-26T09:48:05.545Z,7.60
2019-03-26T09:50:35.762Z,7.60
2019-03-26T09:53:05.455Z,7.60
2019-03-26T09:55:35.087Z,7.60
2019-03-26T09:58:04.722Z,7.70
2019-03-26T10:00:34.440Z,7.70
2019-03-26T10:03:04.129Z,7.70
2019-03-26T10:05:34.146Z,7.70
2019-03-26T10:08:03.790Z,7.80
2019-03-26T10:10:33.452Z,7.80
2019-03-26T10:13:03.087Z,7.80
2019-03-26T10:15:32.810Z,7.90
2019-03-26T10:18:03.724Z,8.00
2019-03-26T10:20:33.740Z,8.10
2019-03-26T10:23:03.685Z,8.10
2019-03-26T10:25:33.657Z,8.00
2019-03-26T10:28:03.315Z,7.70
2019-03-26T10:30:40.385Z,7.60
2019-03-26T10:33:10.023Z,7.50
2019-03-26T10:35:39.989Z,7.50
2019-03-26T10:38:09.654Z,7.50
2019-03-26T10:40:39.538Z,7.60
2019-03-26T10:43:09.175Z,7.60
2019-03-26T10:45:39.073Z,7.60
2019-03-26T10:48:08.770Z,7.50
2019-03-26T10:50:38.404Z,7.50
2019-03-26T10:53:08.045Z,7.60
2019-03-26T10:55:37.658Z,7.70
2019-03-26T10:58:07.307Z,7.70
2019-03-26T11:00:36.935Z,7.80
2019-03-26T11:03:06.586Z,7.90
2019-03-26T11:05:36.215Z,7.90
2019-03-26T11:08:05.839Z,8.00
2019-03-26T11:10:35.474Z,8.00
2019-03-26T11:13:05.410Z,8.00
2019-03-26T11:15:35.359Z,8.10
2019-03-26T11:18:05.001Z,8.10
2019-03-26T11:20:34.980Z,8.10
2019-03-26T11:23:04.712Z,8.20
2019-03-26T11:25:34.554Z,8.20
2019-03-26T11:28:04.642Z,8.30
2019-03-26T11:30:34.363Z,8.30
2019-03-26T11:33:04.262Z,8.30
2019-03-26T11:35:33.892Z,8.40
2019-03-26T11:38:03.531Z,8.40
2019-03-26T11:40:33.721Z,8.50
2019-03-26T11:43:03.346Z,8.60
2019-03-26T11:45:33.327Z,8.60
2019-03-26T11:48:03.238Z,8.60
2019-03-26T11:50:32.880Z,8.60
2019-03-26T11:53:02.877Z,8.70
2019-03-26T11:55:32.578Z,8.80
2019-03-26T11:58:02.264Z,8.80
2019-03-26T12:00:36.488Z,8.90
2019-03-26T12:03:06.117Z,8.90
2019-03-26T12:05:36.052Z,8.90
2019-03-26T12:08:05.686Z,8.90
2019-03-26T12:10:35.394Z,8.90
2019-03-26T12:13:05.023Z,8.90
2019-03-26T12:15:34.642Z,8.90
2019-03-26T12:18:04.274Z,8.90
2019-03-26T12:20:33.897Z,8.90
2019-03-26T12:23:03.920Z,8.90
2019-03-26T12:25:33.603Z,8.80
2019-03-26T12:28:03.241Z,8.80
2019-03-26T12:30:35.067Z,8.80
2019-03-26T12:33:04.890Z,8.90
2019-03-26T12:35:34.526Z,9.00
2019-03-26T12:38:15.910Z,9.10
2019-03-26T12:40:45.542Z,9.10
2019-03-26T12:43:15.722Z,9.10
2019-03-26T12:45:45.356Z,9.20
2019-03-26T12:48:15.017Z,9.10
2019-03-26T12:50:44.787Z,9.00
2019-03-26T12:53:14.497Z,8.90
2019-03-26T12:55:44.283Z,8.90
2019-03-26T12:58:15.018Z,8.90
2019-03-26T13:00:44.689Z,8.80
2019-03-26T13:03:14.329Z,8.90
2019-03-26T13:05:44.401Z,8.90
2019-03-26T13:08:14.364Z,8.90
2019-03-26T13:10:53.374Z,9.00
2019-03-26T13:13:15.449Z,9.00
2019-03-26T13:15:45.373Z,9.00
2019-03-26T13:18:15.183Z,8.90
2019-03-26T13:20:45.172Z,9.00
2019-03-26T13:23:15.243Z,9.00
2019-03-26T13:25:45.224Z,9.00
2019-03-26T13:28:15.228Z,9.00
2019-03-26T13:30:45.062Z,9.00
2019-03-26T13:33:14.957Z,9.00
2019-03-26T13:35:44.613Z,9.00
2019-03-26T13:38:14.591Z,9.00
2019-03-26T13:40:44.385Z,9.00
2019-03-26T13:43:14.318Z,9.00
2019-03-26T13:45:44.336Z,9.10
2019-03-26T13:48:13.996Z,9.20
2019-03-26T13:50:43.676Z,9.20
2019-03-26T13:53:13.309Z,9.20
2019-03-26T13:55:42.950Z,9.10
2019-03-26T13:58:12.593Z,9.20
2019-03-26T14:00:42.225Z,9.20
2019-03-26T14:03:15.124Z,9.20
2019-03-26T14:05:45.088Z,9.20
2019-03-26T14:08:14.706Z,9.30
2019-03-26T14:10:44.351Z,9.20
2019-03-26T14:13:14.212Z,9.20
2019-03-26T14:15:43.860Z,9.20
2019-03-26T14:18:13.753Z,9.30
2019-03-26T14:20:43.670Z,9.30
2019-03-26T14:23:13.307Z,9.30
2019-03-26T14:25:42.933Z,9.30
2019-03-26T14:28:12.810Z,9.30
2019-03-26T14:30:43.672Z,9.30
2019-03-26T14:33:13.653Z,9.20
2019-03-26T14:35:43.278Z,9.20
2019-03-26T14:38:12.919Z,9.20
2019-03-26T14:40:54.113Z,9.20
2019-03-26T14:43:14.932Z,9.20
2019-03-26T14:45:44.555Z,9.30
2019-03-26T14:48:14.202Z,9.20
2019-03-26T14:50:43.813Z,9.30
2019-03-26T14:53:13.443Z,9.20
2019-03-26T14:55:43.089Z,9.30
2019-03-26T14:58:12.732Z,9.30
2019-03-26T15:00:42.347Z,9.40
2019-03-26T15:03:12.347Z,9.40
2019-03-26T15:05:42.054Z,9.40
2019-03-26T15:08:11.668Z,9.40
2019-03-26T15:10:41.300Z,9.40
2019-03-26T15:13:10.949Z,9.40
2019-03-26T15:15:40.636Z,9.40
2019-03-26T15:18:10.612Z,9.40
2019-03-26T15:20:40.245Z,9.40
2019-03-26T15:23:09.867Z,9.30
2019-03-26T15:25:39.853Z,9.30
2019-03-26T15:28:11.759Z,9.30
2019-03-26T15:30:41.021Z,9.30
2019-03-26T15:33:10.650Z,9.30
2019-03-26T15:35:40.278Z,9.20
2019-03-26T15:38:09.901Z,9.20
2019-03-26T15:40:39.519Z,9.20
2019-03-26T15:43:09.150Z,9.10
2019-03-26T15:45:38.785Z,9.10
2019-03-26T15:48:10.041Z,9.10
2019-03-26T15:50:41.237Z,9.10
2019-03-26T15:53:11.166Z,9.10
2019-03-26T15:55:40.801Z,9.00
2019-03-26T15:58:10.605Z,9.00
2019-03-26T16:00:40.520Z,9.00
2019-03-26T16:03:10.447Z,9.00
2019-03-26T16:05:40.116Z,9.00
2019-03-26T16:08:09.777Z,9.00
2019-03-26T16:10:39.459Z,9.00
2019-03-26T16:13:09.093Z,9.00
2019-03-26T16:15:44.740Z,9.00
2019-03-26T16:18:10.064Z,9.00
2019-03-26T16:20:39.758Z,9.00
2019-03-26T16:23:09.406Z,9.00
2019-03-26T16:25:39.382Z,9.00
2019-03-26T16:28:08.995Z,9.00
2019-03-26T16:30:38.986Z,9.00
2019-03-26T16:33:08.618Z,9.00
2019-03-26T16:35:40.265Z,9.00
2019-03-26T16:38:09.585Z,9.00
2019-03-26T16:40:39.251Z,8.90
2019-03-26T16:43:08.866Z,8.90
2019-03-26T16:45:38.786Z,8.90
2019-03-26T16:48:08.417Z,8.90
2019-03-26T16:50:38.080Z,8.90
2019-03-26T16:53:08.096Z,8.90
2019-03-26T16:55:37.744Z,8.80
2019-03-26T16:58:07.430Z,8.80
2019-03-26T17:00:37.057Z,8.80
2019-03-26T17:03:06.689Z,8.70
2019-03-26T17:05:36.609Z,8.70
2019-03-26T17:08:06.591Z,8.60
2019-03-26T17:10:36.210Z,8.60
2019-03-26T17:13:05.844Z,8.50
2019-03-26T17:15:35.471Z,8.50
2019-03-26T17:18:05.448Z,8.50
2019-03-26T17:20:35.401Z,8.50
2019-03-26T17:23:05.039Z,8.40
2019-03-26T17:25:34.660Z,8.40
2019-03-26T17:28:04.374Z,8.30
2019-03-26T17:30:34.001Z,8.30
2019-03-26T17:33:03.648Z,8.30
2019-03-26T17:35:33.344Z,8.30
2019-03-26T17:38:03.024Z,8.30
2019-03-26T17:40:32.959Z,8.20
2019-03-26T17:43:02.598Z,8.30
2019-03-26T17:45:33.485Z,8.20
2019-03-26T17:48:03.185Z,8.20
2019-03-26T17:50:32.808Z,8.20
2019-03-26T17:53:02.461Z,8.10
2019-03-26T17:55:32.096Z,8.10
2019-03-26T17:58:01.811Z,8.00
2019-03-26T18:00:40.074Z,8.00
2019-03-26T18:03:09.704Z,8.10
2019-03-26T18:05:39.696Z,8.00
2019-03-26T18:08:09.331Z,8.00
2019-03-26T18:10:38.974Z,7.90
2019-03-26T18:13:08.610Z,7.90
2019-03-26T18:15:38.250Z,8.00
2019-03-26T18:18:08.244Z,7.90
2019-03-26T18:20:38.314Z,7.90
2019-03-26T18:23:08.270Z,7.90
2019-03-26T18:25:37.896Z,7.90
2019-03-26T18:28:07.546Z,7.90
2019-03-26T18:30:37.191Z,7.80
2019-03-26T18:33:07.110Z,7.90
2019-03-26T18:35:36.759Z,7.80
2019-03-26T18:38:06.385Z,7.80
2019-03-26T18:40:36.028Z,7.80
2019-03-26T18:43:05.665Z,7.70
2019-03-26T18:45:35.677Z,7.80
2019-03-26T18:48:05.381Z,7.70
2019-03-26T18:50:35.031Z,7.70
2019-03-26T18:53:04.687Z,7.70
2019-03-26T18:55:34.321Z,7.70
2019-03-26T18:58:04.136Z,7.70
2019-03-26T19:00:36.316Z,7.70
2019-03-26T19:03:06.118Z,7.70
2019-03-26T19:05:36.844Z,7.70
2019-03-26T19:08:06.768Z,7.70
2019-03-26T19:10:36.771Z,7.70
2019-03-26T19:13:18.507Z,7.70
2019-03-26T19:15:38.035Z,7.70
2019-03-26T19:18:08.747Z,7.70
2019-03-26T19:20:38.679Z,7.70
2019-03-26T19:23:09.625Z,7.60
2019-03-26T19:25:39.249Z,7.60
2019-03-26T19:28:09.256Z,7.60
2019-03-26T19:30:39.203Z,7.60
2019-03-26T19:33:08.919Z,7.60
2019-03-26T19:35:38.542Z,7.60
2019-03-26T19:38:08.422Z,7.60
2019-03-26T19:40:38.067Z,7.60
2019-03-26T19:43:11.412Z,7.60
2019-03-26T19:45:39.050Z,7.60
2019-03-26T19:48:08.680Z,7.60
2019-03-26T19:50:38.396Z,7.60
2019-03-26T19:53:08.015Z,7.60
2019-03-26T19:55:37.655Z,7.60
2019-03-26T19:58:07.286Z,7.60
2019-03-26T20:00:36.927Z,7.60
2019-03-26T20:03:06.841Z,7.60
2019-03-26T20:05:36.497Z,7.60
2019-03-26T20:08:06.480Z,7.60
2019-03-26T20:10:36.361Z,7.60
2019-03-26T20:13:06.279Z,7.60
2019-03-26T20:15:36.163Z,7.60
2019-03-26T20:18:06.045Z,7.60
2019-03-26T20:20:38.481Z,7.60
2019-03-26T20:23:08.358Z,7.60
2019-03-26T20:25:38.338Z,7.60
2019-03-26T20:28:07.980Z,7.60
2019-03-26T20:30:37.659Z,7.60
2019-03-26T20:33:07.705Z,7.60
2019-03-26T20:35:37.361Z,7.50
2019-03-26T20:38:07.068Z,7.50
2019-03-26T20:40:36.790Z,7.50
2019-03-26T20:43:06.679Z,7.50
2019-03-26T20:45:36.347Z,7.50
2019-03-26T20:48:06.105Z,7.50
2019-03-26T20:50:35.765Z,7.50
2019-03-26T20:53:05.822Z,7.50
2019-03-26T20:55:35.469Z,7.50
2019-03-26T20:58:05.222Z,7.50
2019-03-26T21:00:36.669Z,7.50
2019-03-26T23:10:05.344Z,7.40
2019-03-26T23:12:35.382Z,7.40
2019-03-26T23:15:24.945Z,7.40
2019-03-26T23:17:54.890Z,7.40
2019-03-26T23:20:24.775Z,7.40
2019-03-26T23:22:54.414Z,7.30
2019-03-26T23:25:24.064Z,7.30
2019-03-26T23:27:53.708Z,7.30
2019-03-26T23:30:23.621Z,7.30
2019-03-26T23:32:53.753Z,7.30
2019-03-26T23:35:23.456Z,7.30
2019-03-26T23:37:53.107Z,7.30
2019-03-26T23:40:23.077Z,7.30
2019-03-26T23:42:52.708Z,7.30
2019-03-26T23:45:22.364Z,7.30
2019-03-26T23:47:52.103Z,7.30
2019-03-26T23:50:21.801Z,7.30
2019-03-26T23:52:51.448Z,7.30
2019-03-26T23:55:21.105Z,7.30
2019-03-26T23:57:51.161Z,7.30
